Time;durP1;ratioP1;P1;durP2;ratioP2;P2;SDS_P1;SDS_P2;PMS_P1;PMS_P2;Temp;Humidity;BMP_temperature;BMP_pressure;BME280_temperature;BME280_humidity;BME280_pressure;Samples;Min_cycle;Max_cycle;Signal;HPM_P1;HPM_P2
2021/03/10 00:00:11;;;;;;;30.37;15.53;;;;;;;-4.79;59.42;99902.97;509280;1101;114373;-64
2021/03/10 00:10:15;;;;;;;31.93;15.13;;;;;;;-4.83;58.79;99903.81;509105;1102;114546;-66
2021/03/10 00:20:22;;;;;;;34.20;16.70;;;;;;;-4.79;60.56;99914.08;509226;1102;114614;-65
2021/03/10 00:30:25;;;;;;;28.77;15.63;;;;;;;-4.75;60.41;99909.80;509031;1102;114550;-64
2021/03/10 00:40:32;;;;;;;31.23;17.03;;;;;;;-4.75;60.63;99908.96;509285;1100;114294;-64
2021/03/10 00:50:39;;;;;;;31.37;16.57;;;;;;;-4.56;59.93;99899.63;509119;1102;114269;-65
2021/03/10 01:00:42;;;;;;;29.73;15.57;;;;;;;-4.27;59.46;99891.98;509195;1102;114301;-65
2021/03/10 01:10:47;;;;;;;28.57;15.63;;;;;;;-4.04;60.04;99890.29;509094;1102;114614;-65
2021/03/10 01:20:51;;;;;;;30.90;16.07;;;;;;;-3.87;59.61;99880.91;509313;1102;114354;-66
2021/03/10 01:30:55;;;;;;;24.33;15.13;;;;;;;-3.77;59.34;99868.07;508984;1102;114783;-65
2021/03/10 01:41:01;;;;;;;25.83;14.87;;;;;;;-3.65;58.30;99868.05;509125;1102;114291;-64
2021/03/10 01:51:08;;;;;;;26.40;14.37;;;;;;;-3.56;58.56;99868.05;509126;1102;114394;-65
2021/03/10 02:01:10;;;;;;;;;;;;;;;-3.48;58.77;99862.02;509175;1101;115096;-65
2021/03/10 02:11:31;;;;;;;24.50;14.33;;;;;;;-3.56;59.25;99851.77;509194;1102;100826;-65
2021/03/10 02:21:51;;;;;;;28.20;14.83;;;;;;;-3.76;58.82;99851.81;509242;1100;114548;-67
2021/03/10 02:31:56;;;;;;;26.73;13.80;;;;;;;-3.90;59.18;99852.69;509336;1102;114852;-64
2021/03/10 02:41:59;;;;;;;25.30;14.15;;;;;;;-4.11;59.83;99856.96;509164;1102;114729;-66
2021/03/10 02:52:04;;;;;;;23.03;13.80;;;;;;;-4.29;60.31;99849.24;509118;1102;114772;-64
2021/03/10 03:02:07;;;;;;;24.00;14.00;;;;;;;-4.51;61.49;99846.65;509327;1102;114795;-65
2021/03/10 03:12:13;;;;;;;25.07;13.87;;;;;;;-4.66;61.51;99858.59;508932;1102;114907;-65
2021/03/10 03:22:17;;;;;;;24.47;12.47;;;;;;;-4.65;62.55;99867.14;509168;1102;114956;-65
2021/03/10 03:32:26;;;;;;;21.27;12.77;;;;;;;-4.37;61.37;99868.05;509394;1102;114796;-65
2021/03/10 03:42:30;;;;;;;22.97;13.43;;;;;;;-4.16;61.63;99852.69;509199;1102;114456;-63
2021/03/10 03:52:40;;;;;;;22.10;12.20;;;;;;;-4.09;61.85;99856.97;509168;1102;114737;-64
2021/03/10 04:02:44;;;;;;;24.80;15.23;;;;;;;-4.12;61.58;99854.38;509350;1102;115281;-63
2021/03/10 04:12:51;;;;;;;26.43;15.23;;;;;;;-4.13;62.62;99855.23;509309;1102;114753;-65
2021/03/10 04:22:58;;;;;;;32.47;16.50;;;;;;;-4.14;62.73;99846.70;509099;1102;115453;-63
2021/03/10 04:33:01;;;;;;;26.77;16.10;;;;;;;-4.20;61.75;99856.95;509242;1102;114846;-65
2021/03/10 04:43:04;;;;;;;24.43;17.17;;;;;;;-4.29;61.63;99852.67;509024;1102;115127;-65
2021/03/10 04:53:07;;;;;;;24.07;14.27;;;;;;;-4.30;62.66;99858.66;509127;1102;114803;-64
2021/03/10 05:03:12;;;;;;;29.33;17.90;;;;;;;-4.37;62.63;99854.37;509249;1102;114371;-64
2021/03/10 05:13:15;;;;;;;34.70;17.17;;;;;;;-4.49;63.69;99850.09;509166;1102;114856;-64
2021/03/10 05:23:21;;;;;;;31.80;17.27;;;;;;;-4.66;62.76;99862.88;509258;1101;114932;-65
2021/03/10 05:33:25;;;;;;;34.27;19.80;;;;;;;-4.58;63.22;99861.16;509183;1102;114672;-65
2021/03/10 05:43:31;;;;;;;29.05;14.40;;;;;;;-4.30;62.61;99876.61;509139;1102;114909;-66
2021/03/10 05:53:42;;;;;;;34.15;16.85;;;;;;;-3.96;62.55;99875.77;509287;1102;114847;-64
2021/03/10 06:03:56;;;;;;;33.63;17.40;;;;;;;-3.56;62.96;99890.28;509241;1102;114039;-65
2021/03/10 06:13:59;;;;;;;29.67;15.77;;;;;;;-2.98;61.55;99893.56;509334;1102;115094;-64
2021/03/10 06:24:05;;;;;;;29.33;17.33;;;;;;;-2.31;61.22;99906.95;509172;1102;114131;-64
2021/03/10 06:34:10;;;;;;;26.17;16.30;;;;;;;2.44;58.86;99894.42;509108;1102;114746;-65
2021/03/10 06:44:19;;;;;;;32.57;20.97;;;;;;;4.98;54.52;99904.01;509103;1103;115117;-65
2021/03/10 06:54:23;;;;;;;32.20;21.17;;;;;;;9.89;49.75;99906.23;508881;1101;113930;-65
2021/03/10 07:04:27;;;;;;;30.80;20.30;;;;;;;10.25;45.02;99918.19;509077;1102;114627;-65
2021/03/10 07:14:30;;;;;;;35.53;21.90;;;;;;;7.30;45.56;99926.09;509199;1102;115100;-64
2021/03/10 07:24:40;;;;;;;41.93;26.43;;;;;;;5.60;45.38;99930.41;509194;1102;114018;-65
2021/03/10 07:34:43;;;;;;;38.23;23.10;;;;;;;4.48;46.66;99926.53;509250;1102;114786;-65
2021/03/10 07:44:56;;;;;;;38.40;24.63;;;;;;;4.70;45.95;99930.14;509070;1102;114411;-63
2021/03/10 07:55:02;;;;;;;52.50;28.20;;;;;;;4.55;46.30;99947.11;500215;1102;10001905;-65
2021/03/10 08:05:20;;;;;;;43.90;28.33;;;;;;;5.13;46.23;99941.66;509200;1102;114657;-67
2021/03/10 08:15:27;;;;;;;41.70;26.83;;;;;;;5.16;46.76;99948.52;508974;1102;115620;-63
2021/03/10 08:25:30;;;;;;;33.93;25.97;;;;;;;10.91;44.26;99938.91;509137;1102;114290;-62
2021/03/10 08:35:34;;;;;;;30.63;23.63;;;;;;;16.31;40.01;99922.94;509037;1102;114338;-62
2021/03/10 08:45:38;;;;;;;28.97;18.70;;;;;;;20.86;35.98;99896.38;520200;1102;115026;-65
2021/03/10 08:55:46;;;;;;;18.80;10.30;;;;;;;22.65;31.76;99898.95;509191;1102;114371;-64
2021/03/10 09:05:51;;;;;;;7.90;7.10;;;;;;;23.22;29.02;99905.16;512749;1102;115332;-67
2021/03/10 09:15:55;;;;;;;11.17;8.43;;;;;;;18.86;27.96;99913.98;517262;1101;113818;-64
2021/03/10 09:25:59;;;;;;;9.77;8.43;;;;;;;15.04;28.61;99912.68;509383;1102;114346;-71
2021/03/10 09:36:03;;;;;;;9.00;7.73;;;;;;;12.21;28.97;99922.11;510438;1102;114074;-66
2021/03/10 09:46:13;;;;;;;12.23;8.93;;;;;;;9.51;30.37;99934.45;509454;1102;113954;-63
2021/03/10 09:56:22;;;;;;;16.90;9.67;;;;;;;8.46;31.51;99932.86;509466;1102;113943;-67
2021/03/10 10:06:31;;;;;;;13.63;9.30;;;;;;;8.28;31.74;99932.00;492262;1102;10063035;-70
2021/03/10 10:16:37;;;;;;;11.30;9.40;;;;;;;7.52;31.97;99925.12;509326;1102;114250;-68
2021/03/10 10:26:42;;;;;;;18.98;11.95;;;;;;;6.85;32.56;99941.09;509512;1102;114097;-71
2021/03/10 10:36:48;;;;;;;15.00;10.70;;;;;;;6.64;33.03;99943.72;508881;1102;113951;-65
2021/03/10 10:46:56;;;;;;;17.00;12.63;;;;;;;6.69;33.56;99941.75;508664;1102;113912;-65
2021/03/10 10:57:03;;;;;;;14.60;10.80;;;;;;;6.73;32.96;99939.87;508769;1102;113839;-67
2021/03/10 11:07:08;;;;;;;15.77;12.60;;;;;;;6.77;33.08;99941.42;508789;1100;114437;-62
2021/03/10 11:17:16;;;;;;;15.63;11.20;;;;;;;6.75;33.09;99947.61;508746;1102;114145;-65
2021/03/10 11:27:22;;;;;;;14.60;11.83;;;;;;;6.89;33.18;99933.98;508890;1101;114610;-70
2021/03/10 11:37:28;;;;;;;17.40;12.27;;;;;;;6.82;32.52;99934.27;509141;1102;113978;-67
2021/03/10 11:47:31;;;;;;;15.00;11.73;;;;;;;6.59;32.71;99919.57;508909;1102;113955;-68
2021/03/10 11:57:35;;;;;;;14.27;10.70;;;;;;;6.47;32.57;99901.83;509927;1101;114780;-63
2021/03/10 12:07:39;;;;;;;17.57;11.63;;;;;;;6.22;32.97;99893.25;508675;1102;113978;-62
2021/03/10 12:17:44;;;;;;;16.67;11.43;;;;;;;6.03;32.61;99893.16;508677;1102;113946;-69
2021/03/10 12:27:50;;;;;;;25.93;14.27;;;;;;;5.82;33.25;99879.20;516883;1102;114378;-66
2021/03/10 12:37:57;;;;;;;20.27;12.30;;;;;;;6.05;33.03;99870.47;509082;1102;114418;-67
2021/03/10 12:48:03;;;;;;;16.50;12.30;;;;;;;5.83;32.04;99868.73;508918;1101;114311;-62
2021/03/10 12:58:06;;;;;;;18.23;12.47;;;;;;;5.56;33.11;99871.49;509472;1102;114571;-62
2021/03/10 13:08:12;;;;;;;15.30;12.17;;;;;;;5.55;33.71;99875.01;508460;1102;114347;-65
2021/03/10 13:18:15;;;;;;;20.63;12.73;;;;;;;4.71;33.13;99882.41;508894;1102;114335;-63
2021/03/10 13:28:20;;;;;;;17.40;12.83;;;;;;;4.37;33.44;99888.77;508780;1102;113978;-64
2021/03/10 13:38:23;;;;;;;15.07;11.73;;;;;;;4.40;33.76;99878.29;508172;1102;114427;-64
2021/03/10 13:48:27;;;;;;;17.67;12.63;;;;;;;4.75;33.33;99878.83;513727;1101;115045;-63
2021/03/10 13:58:31;;;;;;;18.20;12.75;;;;;;;4.76;33.18;99881.35;508735;1101;113921;-64
2021/03/10 14:08:38;;;;;;;20.45;12.10;;;;;;;4.78;33.79;99878.70;508940;1102;114637;-64
2021/03/10 14:18:42;;;;;;;19.90;14.17;;;;;;;4.90;33.56;99865.25;508759;1102;114683;-63
2021/03/10 14:28:46;;;;;;;20.07;13.17;;;;;;;4.62;33.58;99854.98;509100;1102;114471;-63
2021/03/10 14:38:49;;;;;;;19.03;13.13;;;;;;;4.24;34.20;99855.39;509206;1102;114595;-63
2021/03/10 14:48:53;;;;;;;15.50;9.97;;;;;;;3.98;33.94;99859.71;508882;1102;114520;-64
2021/03/10 14:58:56;;;;;;;15.05;11.20;;;;;;;3.74;33.51;99864.79;509064;1102;114450;-64
2021/03/10 15:08:59;;;;;;;17.13;11.50;;;;;;;3.60;34.36;99859.19;508814;1102;114495;-63
2021/03/10 15:19:04;;;;;;;18.03;11.83;;;;;;;3.41;34.60;99864.92;508724;1102;113939;-63
2021/03/10 15:29:07;;;;;;;23.03;13.67;;;;;;;3.22;35.19;99868.05;508619;1102;114778;-65
2021/03/10 15:39:12;;;;;;;22.00;11.40;;;;;;;3.04;35.17;99860.82;508969;1102;114817;-62
2021/03/10 15:49:20;;;;;;;21.50;12.00;;;;;;;2.73;35.39;99859.94;509215;1102;114696;-66
2021/03/10 15:59:24;;;;;;;22.60;15.23;;;;;;;2.37;35.42;99857.44;508828;1102;115142;-65
2021/03/10 16:09:27;;;;;;;24.40;15.57;;;;;;;1.98;36.07;99853.22;508715;1102;115496;-62
2021/03/10 16:19:31;;;;;;;35.03;21.73;;;;;;;1.59;35.94;99856.70;509230;1102;114527;-64
2021/03/10 16:29:34;;;;;;;91.37;51.63;;;;;;;1.12;36.49;99851.67;509280;1102;114782;-63
2021/03/10 16:39:37;;;;;;;96.13;52.77;;;;;;;0.64;37.56;99865.56;508809;1102;114510;-64
2021/03/10 16:49:43;;;;;;;79.33;39.60;;;;;;;0.10;40.12;99857.02;508710;1102;114484;-64
2021/03/10 16:59:49;;;;;;;76.75;39.90;;;;;;;-0.44;41.10;99859.56;509368;1102;114582;-68
2021/03/10 17:09:53;;;;;;;63.83;32.53;;;;;;;-0.87;41.30;99875.61;508933;1101;115019;-68
2021/03/10 17:19:56;;;;;;;83.03;42.97;;;;;;;-1.27;42.99;99887.22;508912;1102;114870;-68
2021/03/10 17:29:59;;;;;;;65.50;38.80;;;;;;;-1.60;43.70;99892.70;508889;1102;114647;-64
2021/03/10 17:40:04;;;;;;;74.03;46.30;;;;;;;-1.95;44.51;99903.29;509127;1102;114465;-62
2021/03/10 17:50:10;;;;;;;76.70;48.03;;;;;;;-2.21;45.28;99919.77;508962;1102;114807;-59
2021/03/10 18:00:25;;;;;;;84.33;45.50;;;;;;;-2.40;45.53;99927.59;508807;1102;114542;-58
2021/03/10 18:10:35;;;;;;;74.50;39.80;;;;;;;-2.48;47.04;99932.77;509052;1102;114305;-60
2021/03/10 18:20:39;;;;;;;61.60;37.20;;;;;;;-2.57;46.37;99945.67;508711;1102;114827;-59
2021/03/10 18:30:44;;;;;;;72.70;40.47;;;;;;;-2.63;47.12;99958.56;508872;1102;115619;-60
2021/03/10 18:40:47;;;;;;;78.57;38.53;;;;;;;-2.72;48.47;99960.30;508747;1101;114117;-61
2021/03/10 18:50:53;;;;;;;62.50;38.75;;;;;;;-2.73;48.31;99968.88;508733;1102;114587;-61
2021/03/10 19:00:56;;;;;;;54.97;33.33;;;;;;;-2.65;47.80;99973.98;508861;1102;114299;-61
2021/03/10 19:11:00;;;;;;;66.20;37.03;;;;;;;-2.74;49.28;99974.88;509080;1101;114101;-60
2021/03/10 19:21:05;;;;;;;60.70;35.17;;;;;;;-2.69;49.00;99965.42;508837;1102;114263;-58
2021/03/10 19:31:08;;;;;;;64.20;36.70;;;;;;;-2.69;49.68;99967.16;509153;1102;114124;-61
2021/03/10 19:41:12;;;;;;;56.37;34.30;;;;;;;-2.70;49.57;99961.15;508754;1102;114131;-64
2021/03/10 19:51:18;;;;;;;64.33;35.60;;;;;;;-2.75;49.53;99949.17;508721;1102;115681;-63
2021/03/10 20:01:25;;;;;;;53.23;31.57;;;;;;;-2.79;50.35;99932.06;508739;1102;114522;-65
2021/03/10 20:11:30;;;;;;;62.20;33.45;;;;;;;-2.89;49.97;99926.95;508883;1102;114216;-60
2021/03/10 20:21:37;;;;;;;64.73;35.80;;;;;;;-3.01;50.05;99920.12;508712;1102;114454;-58
2021/03/10 20:31:40;;;;;;;63.07;36.40;;;;;;;-3.19;50.39;99913.31;508800;1102;114820;-58
2021/03/10 20:41:46;;;;;;;66.55;36.25;;;;;;;-3.34;50.81;99913.36;509173;1102;114466;-58
2021/03/10 20:51:50;;;;;;;66.60;35.27;;;;;;;-3.47;51.25;99921.09;509043;1102;114231;-60
2021/03/10 21:01:53;;;;;;;66.30;36.30;;;;;;;-3.61;52.09;99915.12;509001;1102;114165;-61
2021/03/10 21:11:58;;;;;;;63.55;35.70;;;;;;;-3.72;52.46;99910.84;509137;1102;114113;-61
2021/03/10 21:22:02;;;;;;;68.27;38.57;;;;;;;-3.95;52.61;99903.13;509405;1102;114185;-60
2021/03/10 21:32:11;;;;;;;72.13;39.93;;;;;;;-4.24;52.60;99891.98;508727;1102;116557;-59
2021/03/10 21:42:15;;;;;;;61.40;35.87;;;;;;;-4.44;53.49;99886.83;508866;1102;114463;-58
2021/03/10 21:52:19;;;;;;;46.37;26.47;;;;;;;-4.46;53.27;99888.55;508896;1102;114830;-58
2021/03/10 22:02:22;;;;;;;48.43;28.57;;;;;;;-4.27;53.96;99883.42;508951;1102;115273;-59
2021/03/10 22:12:27;;;;;;;;;;;;;;;-4.24;54.54;99891.15;508987;1102;115064;-60
2021/03/10 22:22:31;;;;;;;46.40;26.57;;;;;;;-4.28;53.97;99899.67;508730;1102;100932;-62
2021/03/10 22:32:34;;;;;;;43.03;24.33;;;;;;;-4.30;54.64;99899.69;508970;1102;114710;-60
2021/03/10 22:42:38;;;;;;;44.53;25.67;;;;;;;-4.41;54.76;99903.94;509079;1102;114786;-60
2021/03/10 22:52:41;;;;;;;45.73;25.13;;;;;;;-4.48;55.63;99894.51;508998;1102;114895;-60
2021/03/10 23:02:44;;;;;;;45.70;26.23;;;;;;;-4.57;55.13;99898.75;509019;1102;114480;-64
2021/03/10 23:12:50;;;;;;;;;;;;;;;-4.68;55.18;99887.61;509002;1102;114327;-70
2021/03/10 23:22:54;;;;;;;45.97;27.33;;;;;;;-4.61;56.60;99862.89;509316;1102;100077;-69
2021/03/10 23:32:58;;;;;;;58.60;31.83;;;;;;;-4.57;56.75;99836.40;508975;1102;114312;-67
2021/03/10 23:43:04;;;;;;;51.43;29.43;;;;;;;-4.58;56.71;99816.75;508992;1102;115183;-66
2021/03/10 23:53:06;;;;;;;;;;;;;;;-4.60;57.16;99814.17;509066;1102;115012;-65
